createdAt,value
2023-04-21T00:01:08.547Z,3.20
2023-04-21T00:03:38.633Z,3.60
2023-04-21T00:06:07.354Z,3.50
2023-04-21T00:08:40.538Z,4.30
2023-04-21T00:11:08.708Z,3.80
2023-04-21T00:13:36.929Z,3.50
2023-04-21T00:16:05.810Z,3.10
2023-04-21T00:18:34.324Z,3.50
2023-04-21T00:21:02.483Z,3.20
2023-04-21T00:23:30.803Z,3.20
2023-04-21T00:25:59.479Z,4.00
2023-04-21T00:28:27.652Z,3.90
2023-04-21T00:30:56.191Z,3.50
2023-04-21T00:33:24.583Z,3.90
2023-04-21T00:35:54.486Z,3.50
2023-04-21T00:38:22.892Z,3.20
2023-04-21T00:40:50.874Z,3.20
2023-04-21T00:43:19.186Z,2.80
2023-04-21T00:45:48.200Z,3.00
2023-04-21T00:48:16.333Z,3.50
2023-04-21T00:50:45.091Z,3.90
2023-04-21T00:53:13.900Z,3.70
2023-04-21T00:55:42.123Z,3.30
2023-04-21T00:58:10.297Z,3.00
2023-04-21T01:00:39.578Z,3.40
2023-04-21T01:03:08.233Z,4.10
2023-04-21T01:05:36.496Z,3.30
2023-04-21T01:08:06.159Z,3.70
2023-04-21T01:10:34.828Z,3.10
2023-04-21T01:13:03.414Z,3.70
2023-04-21T01:15:31.771Z,2.80
2023-04-21T01:18:01.260Z,3.60
2023-04-21T01:20:29.914Z,3.30
2023-04-21T01:22:59.114Z,3.40
2023-04-21T01:25:28.632Z,2.90
2023-04-21T01:27:57.801Z,3.50
2023-04-21T01:30:25.997Z,3.80
2023-04-21T01:32:54.101Z,3.60
2023-04-21T01:35:22.221Z,3.30
2023-04-21T01:37:50.512Z,3.00
2023-04-21T01:40:21.163Z,3.40
2023-04-21T01:42:49.244Z,3.10
2023-04-21T01:45:17.421Z,3.50
2023-04-21T01:47:45.840Z,3.50
2023-04-21T01:50:14.608Z,3.80
2023-04-21T01:52:43.913Z,3.10
2023-04-21T01:55:12.138Z,3.60
2023-04-21T01:57:41.644Z,4.30
2023-04-21T02:00:10.268Z,2.80
2023-04-21T02:02:46.540Z,3.20
2023-04-21T02:05:14.985Z,3.10
2023-04-21T02:07:43.045Z,3.80
2023-04-21T02:10:11.574Z,3.80
2023-04-21T02:12:40.843Z,3.90
2023-04-21T02:15:11.306Z,3.60
2023-04-21T02:17:39.514Z,3.90
2023-04-21T02:20:12.291Z,4.10
2023-04-21T02:22:41.293Z,3.60
2023-04-21T02:25:09.493Z,3.80
2023-04-21T02:27:37.920Z,3.40
2023-04-21T02:30:09.478Z,3.70
2023-04-21T02:32:37.875Z,3.50
2023-04-21T02:35:06.372Z,3.50
2023-04-21T02:37:34.817Z,4.00
2023-04-21T02:40:03.146Z,3.10
2023-04-21T02:42:35.562Z,3.70
2023-04-21T02:45:04.062Z,3.80
2023-04-21T02:47:35.177Z,4.40
2023-04-21T02:50:05.292Z,3.50
2023-04-21T02:52:38.099Z,3.70
2023-04-21T02:55:06.802Z,3.60
2023-04-21T02:57:35.197Z,3.10
2023-04-21T03:00:05.068Z,3.70
2023-04-21T03:02:34.146Z,4.00
2023-04-21T03:05:02.560Z,3.60
2023-04-21T03:07:32.681Z,3.70
2023-04-21T03:10:01.052Z,4.30
2023-04-21T03:12:29.252Z,4.30
2023-04-21T03:14:57.482Z,4.60
2023-04-21T03:17:25.575Z,3.90
2023-04-21T03:19:53.730Z,4.00
2023-04-21T03:22:21.865Z,5.10
2023-04-21T03:24:50.066Z,3.40
2023-04-21T03:27:18.197Z,4.00
2023-04-21T03:29:46.196Z,3.80
2023-04-21T03:32:14.273Z,4.80
2023-04-21T03:34:42.724Z,4.50
2023-04-21T03:37:10.845Z,4.20
2023-04-21T03:39:39.136Z,4.70
2023-04-21T03:42:08.003Z,5.20
2023-04-21T03:44:36.328Z,5.50
2023-04-21T03:47:04.794Z,5.10
2023-04-21T03:49:35.984Z,5.30
2023-04-21T03:52:04.177Z,5.10
2023-04-21T03:54:32.315Z,4.60
2023-04-21T03:57:00.288Z,4.80
2023-04-21T03:59:28.402Z,5.20
2023-04-21T04:01:56.460Z,4.30
2023-04-21T04:04:24.598Z,4.30
2023-04-21T04:06:52.725Z,4.30
2023-04-21T04:09:21.080Z,4.30
2023-04-21T04:11:49.400Z,4.70
2023-04-21T04:14:17.508Z,5.30
2023-04-21T04:16:45.998Z,5.10
2023-04-21T04:19:14.045Z,6.00
2023-04-21T04:21:42.030Z,4.90
2023-04-21T04:24:11.643Z,4.10
2023-04-21T04:26:40.168Z,4.60
2023-04-21T04:29:10.685Z,3.80
2023-04-21T04:31:39.147Z,4.40
2023-04-21T04:34:07.315Z,4.00
2023-04-21T04:36:35.383Z,5.60
2023-04-21T04:39:03.899Z,4.50
2023-04-21T04:41:34.032Z,4.60
2023-04-21T04:44:05.207Z,4.70
2023-04-21T04:46:33.660Z,4.40
2023-04-21T04:49:01.945Z,5.10
2023-04-21T04:51:30.428Z,4.40
2023-04-21T04:53:58.908Z,4.50
2023-04-21T04:56:27.004Z,5.00
2023-04-21T04:58:55.106Z,5.50
2023-04-21T05:01:28.181Z,4.70
2023-04-21T05:03:57.451Z,4.60
2023-04-21T05:06:26.225Z,5.30
2023-04-21T05:08:54.212Z,4.70
2023-04-21T05:11:22.611Z,5.40
2023-04-21T05:13:50.758Z,6.80
2023-04-21T05:16:18.772Z,5.90
2023-04-21T05:18:46.896Z,5.50
2023-04-21T05:21:14.915Z,6.40
2023-04-21T05:23:42.875Z,5.90
2023-04-21T05:26:11.021Z,5.00
2023-04-21T05:28:39.180Z,5.20
2023-04-21T05:31:07.252Z,5.40
2023-04-21T05:33:36.751Z,5.10
2023-04-21T05:36:09.380Z,4.60
2023-04-21T05:38:37.921Z,4.40
2023-04-21T05:41:05.963Z,4.50
2023-04-21T05:43:35.397Z,3.90
2023-04-21T05:46:04.178Z,3.60
2023-04-21T05:48:32.292Z,4.20
2023-04-21T05:51:11.388Z,3.40
2023-04-21T05:53:40.167Z,4.30
2023-04-21T05:56:11.312Z,4.30
2023-04-21T05:58:39.646Z,3.70
2023-04-21T06:01:08.110Z,4.10
2023-04-21T06:03:36.438Z,4.30
2023-04-21T06:06:05.967Z,3.70
2023-04-21T06:08:34.610Z,3.90
2023-04-21T06:11:02.583Z,4.40
2023-04-21T06:13:30.731Z,3.50
2023-04-21T06:15:58.789Z,4.50
2023-04-21T06:18:27.450Z,4.30
2023-04-21T06:20:55.795Z,4.50
2023-04-21T06:23:27.512Z,4.00
2023-04-21T06:26:07.038Z,4.30
2023-04-21T06:28:35.853Z,4.70
2023-04-21T06:31:06.103Z,4.00
2023-04-21T06:33:36.000Z,3.70
2023-04-21T06:36:04.690Z,4.10
2023-04-21T06:38:32.847Z,4.10
2023-04-21T06:41:01.388Z,4.10
2023-04-21T06:43:29.516Z,4.10
2023-04-21T06:45:57.548Z,3.90
2023-04-21T06:48:26.501Z,3.60
2023-04-21T06:50:55.058Z,4.30
2023-04-21T06:53:23.078Z,4.00
2023-04-21T06:55:53.178Z,4.40
2023-04-21T06:58:21.594Z,4.20
2023-04-21T07:00:49.673Z,4.50
2023-04-21T07:03:17.977Z,5.20
2023-04-21T07:05:47.281Z,7.20
2023-04-21T07:08:15.374Z,6.40
2023-04-21T07:10:43.442Z,5.20
2023-04-21T07:13:11.709Z,5.90
2023-04-21T07:15:39.894Z,4.40
2023-04-21T07:18:07.958Z,4.90
2023-04-21T07:20:36.277Z,4.40
2023-04-21T07:23:04.450Z,4.20
2023-04-21T07:25:32.593Z,3.50
2023-04-21T07:28:00.637Z,3.60
2023-04-21T07:30:29.463Z,3.90
2023-04-21T07:32:57.689Z,4.00
2023-04-21T07:35:26.224Z,3.30
2023-04-21T07:37:54.540Z,3.40
2023-04-21T07:40:22.658Z,4.10
2023-04-21T07:42:50.813Z,3.30
2023-04-21T07:45:19.015Z,3.50
2023-04-21T07:47:47.378Z,3.40
2023-04-21T07:50:15.490Z,3.40
2023-04-21T07:52:43.599Z,3.80
2023-04-21T07:55:11.682Z,3.60
2023-04-21T07:57:40.323Z,3.50
2023-04-21T08:00:09.593Z,3.70
2023-04-21T08:02:41.814Z,3.50
2023-04-21T08:05:10.027Z,3.40
2023-04-21T08:07:39.666Z,3.20
2023-04-21T08:10:08.710Z,4.10
2023-04-21T08:12:37.014Z,3.20
2023-04-21T08:15:08.368Z,3.40
2023-04-21T08:17:37.991Z,3.30
2023-04-21T08:20:06.815Z,3.10
2023-04-21T08:22:37.882Z,3.50
2023-04-21T08:25:06.521Z,3.10
2023-04-21T08:27:37.864Z,2.90
2023-04-21T08:30:06.467Z,2.90
2023-04-21T08:32:34.764Z,3.30
2023-04-21T08:35:03.030Z,3.40
2023-04-21T08:37:31.442Z,2.80
2023-04-21T08:39:59.493Z,3.00
2023-04-21T08:42:27.520Z,3.70
2023-04-21T08:44:56.124Z,3.50
2023-04-21T08:47:24.581Z,2.80
2023-04-21T08:49:54.284Z,2.90
2023-04-21T08:52:22.329Z,3.30
2023-04-21T08:54:53.065Z,3.10
2023-04-21T08:57:21.156Z,2.60
2023-04-21T08:59:49.353Z,3.40
2023-04-21T09:02:19.255Z,3.60
2023-04-21T09:04:48.969Z,3.20
2023-04-21T09:07:42.017Z,2.70
2023-04-21T09:10:10.305Z,2.50
2023-04-21T09:12:39.751Z,3.00
2023-04-21T09:15:10.677Z,2.60
2023-04-21T09:17:39.039Z,2.30
2023-04-21T09:20:14.813Z,3.40
2023-04-21T09:22:43.080Z,2.50
2023-04-21T09:25:11.347Z,2.40
2023-04-21T09:27:39.886Z,2.50
2023-04-21T09:30:08.706Z,2.00
2023-04-21T09:32:40.663Z,2.50
2023-04-21T09:35:11.616Z,1.60
2023-04-21T09:37:39.962Z,1.60
2023-04-21T09:40:08.249Z,1.80
2023-04-21T09:42:38.892Z,1.50
2023-04-21T09:45:32.406Z,1.60
2023-04-21T09:48:01.971Z,1.50
2023-04-21T09:53:02.364Z,1.70
2023-04-21T09:55:31.473Z,1.80
2023-04-21T09:58:00.702Z,1.70
2023-04-21T10:00:31.714Z,1.70
2023-04-21T10:03:01.119Z,1.80
2023-04-21T10:05:29.585Z,2.40
2023-04-21T10:10:27.353Z,2.00
2023-04-21T10:12:55.419Z,2.80
2023-04-21T10:15:33.883Z,2.40
2023-04-21T10:18:12.794Z,3.10
2023-04-21T10:21:03.965Z,3.10
2023-04-21T10:23:45.570Z,2.90
2023-04-21T10:26:17.602Z,2.80
2023-04-21T10:28:45.787Z,2.90
2023-04-21T10:31:36.538Z,2.50
2023-04-21T10:34:07.973Z,2.80
2023-04-21T10:36:48.931Z,2.70
2023-04-21T10:39:35.892Z,2.90
2023-04-21T10:42:13.509Z,2.60
2023-04-21T10:44:45.003Z,3.10
2023-04-21T10:47:13.090Z,3.60
2023-04-21T10:49:41.298Z,3.60
2023-04-21T10:52:10.843Z,4.20
2023-04-21T10:55:05.880Z,3.90
2023-04-21T10:57:34.621Z,3.40
2023-04-21T11:00:06.275Z,3.00
2023-04-21T11:02:38.611Z,3.10
2023-04-21T11:05:09.500Z,3.20
2023-04-21T11:07:38.616Z,3.80
2023-04-21T11:10:08.101Z,3.20
2023-04-21T11:12:38.864Z,2.80
2023-04-21T11:15:11.969Z,3.30
2023-04-21T11:17:43.322Z,3.30
2023-04-21T11:20:11.576Z,3.20
2023-04-21T11:22:39.889Z,3.40
2023-04-21T11:25:17.129Z,3.30
2023-04-21T11:27:54.048Z,3.10
2023-04-21T11:30:30.622Z,3.20
2023-04-21T11:32:58.887Z,3.20
2023-04-21T11:35:27.083Z,3.90
2023-04-21T11:37:55.464Z,3.80
2023-04-21T11:40:23.565Z,4.30
2023-04-21T11:42:51.537Z,3.80
2023-04-21T11:45:22.087Z,4.70
2023-04-21T11:47:51.153Z,4.10
2023-04-21T11:50:30.680Z,4.50
2023-04-21T11:52:58.883Z,4.50
2023-04-21T11:55:28.820Z,4.60
2023-04-21T11:57:57.816Z,4.70
2023-04-21T12:00:30.157Z,4.70
2023-04-21T12:02:58.663Z,5.50
2023-04-21T12:05:34.900Z,5.20
2023-04-21T12:08:05.169Z,4.50
2023-04-21T12:10:33.242Z,4.30
2023-04-21T12:13:01.427Z,4.60
2023-04-21T12:15:31.210Z,4.50
2023-04-21T12:17:59.304Z,4.30
2023-04-21T12:20:29.123Z,4.80
2023-04-21T12:22:57.397Z,4.70
2023-04-21T12:25:26.210Z,4.50
2023-04-21T12:27:58.206Z,3.70
2023-04-21T12:30:26.397Z,3.80
2023-04-21T12:32:55.885Z,3.80
2023-04-21T12:35:26.064Z,3.90
2023-04-21T12:37:54.216Z,3.70
2023-04-21T12:40:22.807Z,4.20
2023-04-21T12:42:51.879Z,3.70
2023-04-21T12:45:20.334Z,4.00
2023-04-21T12:47:48.526Z,3.90
2023-04-21T12:50:16.597Z,4.30
2023-04-21T12:52:44.762Z,3.60
2023-04-21T12:55:13.656Z,3.50
2023-04-21T12:57:41.969Z,3.80
2023-04-21T13:00:12.515Z,4.20
2023-04-21T13:02:42.052Z,3.40
2023-04-21T13:05:12.120Z,3.80
2023-04-21T13:07:41.532Z,3.80
2023-04-21T13:10:09.987Z,3.50
2023-04-21T13:12:41.573Z,4.50
2023-04-21T13:15:10.871Z,3.40
2023-04-21T13:17:39.399Z,3.90
2023-04-21T13:20:08.065Z,3.50
2023-04-21T13:22:36.295Z,3.00
2023-04-21T13:25:04.750Z,4.30
2023-04-21T13:27:34.211Z,3.20
2023-04-21T13:30:02.795Z,4.00
2023-04-21T13:32:31.317Z,3.60
2023-04-21T13:34:59.594Z,4.10
2023-04-21T13:37:27.785Z,3.10
2023-04-21T13:39:55.969Z,3.70
2023-04-21T13:42:24.119Z,3.80
2023-04-21T13:44:52.402Z,3.20
2023-04-21T13:47:20.524Z,3.00
2023-04-21T13:49:50.206Z,3.40
2023-04-21T13:52:18.375Z,4.00
2023-04-21T13:54:46.612Z,3.60
2023-04-21T13:57:14.909Z,3.60
2023-04-21T13:59:42.956Z,3.90
2023-04-21T14:02:11.180Z,3.50
2023-04-21T14:04:39.747Z,3.10
2023-04-21T14:07:08.235Z,3.60
2023-04-21T14:09:37.141Z,3.20
2023-04-21T14:12:05.257Z,3.80
2023-04-21T14:17:05.975Z,3.70
2023-04-21T14:19:36.764Z,3.50
2023-04-21T14:22:05.233Z,3.60
2023-04-21T14:24:34.158Z,3.90
2023-04-21T14:27:02.426Z,3.50
2023-04-21T14:29:32.499Z,3.70
2023-04-21T14:32:01.114Z,3.70
2023-04-21T14:34:30.155Z,3.10
2023-04-21T14:36:59.125Z,3.70
2023-04-21T14:39:27.316Z,3.80
2023-04-21T14:41:55.582Z,3.30
2023-04-21T14:44:24.028Z,3.70
2023-04-21T14:47:05.590Z,3.80
2023-04-21T14:49:40.829Z,4.10
2023-04-21T14:52:09.465Z,3.80
2023-04-21T14:54:37.767Z,3.50
2023-04-21T14:57:18.969Z,3.50
2023-04-21T14:59:51.796Z,3.80
2023-04-21T15:02:21.201Z,3.80
2023-04-21T15:04:49.800Z,4.00
2023-04-21T15:07:23.317Z,4.60
2023-04-21T15:09:52.900Z,4.30
2023-04-21T15:12:20.942Z,3.90
2023-04-21T15:14:49.406Z,4.30
2023-04-21T15:17:17.735Z,4.00
2023-04-21T15:19:45.869Z,3.70
2023-04-21T15:22:15.392Z,4.10
2023-04-21T15:24:43.821Z,4.20
2023-04-21T15:27:11.867Z,3.80
2023-04-21T15:29:40.368Z,3.70
2023-04-21T15:32:08.465Z,3.70
2023-04-21T15:34:36.951Z,3.60
2023-04-21T15:37:05.599Z,4.00
2023-04-21T15:39:34.736Z,3.80
2023-04-21T15:42:04.496Z,4.90
2023-04-21T15:44:34.205Z,3.80
2023-04-21T15:47:03.047Z,3.90
2023-04-21T15:49:31.266Z,4.30
2023-04-21T15:51:59.469Z,3.80
2023-04-21T15:54:27.623Z,3.90
2023-04-21T15:56:55.913Z,3.80
2023-04-21T15:59:25.930Z,4.50
2023-04-21T16:01:54.760Z,4.00
2023-04-21T16:04:23.683Z,4.20
2023-04-21T16:06:52.837Z,3.70
2023-04-21T16:09:23.781Z,4.60
2023-04-21T16:11:52.025Z,3.80
2023-04-21T16:14:20.152Z,3.80
2023-04-21T16:16:48.324Z,4.00
2023-04-21T16:19:16.491Z,3.90
2023-04-21T16:21:44.807Z,6.10
2023-04-21T16:24:13.121Z,6.30
2023-04-21T16:26:41.558Z,4.80
2023-04-21T16:29:09.628Z,5.60
2023-04-21T16:31:37.822Z,4.90
2023-04-21T16:34:05.979Z,5.20
2023-04-21T16:36:34.725Z,7.40
2023-04-21T16:39:02.888Z,6.40
2023-04-21T16:41:31.138Z,6.00
2023-04-21T16:43:59.260Z,5.90
2023-04-21T16:46:27.654Z,3.90
2023-04-21T16:48:55.895Z,4.20
2023-04-21T16:51:26.163Z,4.10
2023-04-21T16:53:56.695Z,4.40
2023-04-21T16:56:24.725Z,4.40
2023-04-21T16:58:53.059Z,4.80
2023-04-21T17:01:21.164Z,4.60
2023-04-21T17:03:49.344Z,4.60
2023-04-21T17:06:21.226Z,4.60
2023-04-21T17:08:49.884Z,5.50
2023-04-21T17:11:18.030Z,5.40
2023-04-21T17:13:46.190Z,5.20
2023-04-21T17:16:14.331Z,5.20
2023-04-21T17:18:42.522Z,5.90
2023-04-21T17:21:10.570Z,5.40
2023-04-21T17:23:38.802Z,6.40
2023-04-21T17:26:07.219Z,8.90
2023-04-21T17:28:35.570Z,12.00
2023-04-21T17:31:15.046Z,14.10
2023-04-21T17:33:44.910Z,10.10
2023-04-21T17:36:13.160Z,8.90
2023-04-21T17:38:42.902Z,8.20
2023-04-21T17:41:11.623Z,7.10
2023-04-21T17:43:39.763Z,6.00
2023-04-21T17:46:07.989Z,6.60
2023-04-21T17:48:36.257Z,8.10
2023-04-21T17:51:04.434Z,8.20
2023-04-21T17:53:32.720Z,7.30
2023-04-21T17:56:01.237Z,6.00
2023-04-21T17:58:29.637Z,7.70
2023-04-21T18:00:57.685Z,5.30
2023-04-21T18:03:27.402Z,6.40
2023-04-21T18:05:55.711Z,5.50
2023-04-21T18:08:23.761Z,5.70
2023-04-21T18:10:52.488Z,8.80
2023-04-21T18:13:20.640Z,8.60
2023-04-21T18:15:48.821Z,6.90
2023-04-21T18:18:16.997Z,6.20
2023-04-21T18:20:45.107Z,6.00
2023-04-21T18:23:13.145Z,5.80
2023-04-21T18:25:43.187Z,5.20
2023-04-21T18:28:12.880Z,6.00
2023-04-21T18:30:41.337Z,5.40
2023-04-21T18:33:11.035Z,5.40
2023-04-21T18:35:41.047Z,5.20
2023-04-21T18:38:11.594Z,6.00
2023-04-21T18:40:40.914Z,6.50
2023-04-21T18:43:10.183Z,6.80
2023-04-21T18:45:38.863Z,7.70
2023-04-21T18:48:07.588Z,7.80
2023-04-21T18:50:40.447Z,7.60
2023-04-21T18:53:09.154Z,7.40
2023-04-21T18:55:37.747Z,8.70
2023-04-21T18:58:06.180Z,8.50
2023-04-21T19:00:37.549Z,8.10
2023-04-21T19:03:06.403Z,8.70
2023-04-21T19:05:36.958Z,9.50
2023-04-21T19:08:05.925Z,8.70
2023-04-21T19:10:35.736Z,8.70
2023-04-21T19:13:04.401Z,10.90
2023-04-21T19:15:32.493Z,10.90
2023-04-21T19:18:01.260Z,11.50
2023-04-21T19:20:30.064Z,10.90
2023-04-21T19:22:58.256Z,11.10
2023-04-21T19:25:26.302Z,11.30
2023-04-21T19:27:54.762Z,10.20
2023-04-21T19:30:22.831Z,9.20
2023-04-21T19:32:50.883Z,9.50
2023-04-21T19:35:18.982Z,9.90
2023-04-21T19:37:47.346Z,9.00
2023-04-21T19:40:15.420Z,9.60
2023-04-21T19:42:43.684Z,8.20
2023-04-21T19:45:11.840Z,9.80
2023-04-21T19:47:40.143Z,10.30
2023-04-21T19:50:09.279Z,9.10
2023-04-21T19:52:37.653Z,10.10
2023-04-21T19:55:06.799Z,11.20
2023-04-21T19:57:35.962Z,10.20
2023-04-21T20:00:06.368Z,8.50
2023-04-21T20:02:40.942Z,8.00
2023-04-21T20:05:09.566Z,7.60
2023-04-21T20:07:37.914Z,7.40
2023-04-21T20:10:06.986Z,7.20
2023-04-21T20:12:35.132Z,7.30
2023-04-21T20:15:03.304Z,6.50
2023-04-21T20:17:32.618Z,7.30
2023-04-21T20:20:01.310Z,7.50
2023-04-21T20:22:29.840Z,7.30
2023-04-21T20:24:58.361Z,7.50
2023-04-21T20:27:27.012Z,8.30
2023-04-21T20:29:55.159Z,8.00
2023-04-21T20:32:23.598Z,8.20
2023-04-21T20:34:53.896Z,9.80
2023-04-21T20:37:23.250Z,8.80
2023-04-21T20:39:51.862Z,8.10
2023-04-21T20:42:21.920Z,8.70
2023-04-21T20:44:50.253Z,9.50
2023-04-21T20:47:18.401Z,8.00
2023-04-21T20:49:47.607Z,7.80
2023-04-21T20:52:16.126Z,8.60
2023-04-21T20:54:44.297Z,8.20
2023-04-21T20:57:12.483Z,8.40
2023-04-21T20:59:41.071Z,7.40
2023-04-21T21:04:37.890Z,7.60
2023-04-21T21:07:06.535Z,7.60
2023-04-21T21:09:34.929Z,7.80
2023-04-21T21:12:02.955Z,7.40
2023-04-21T21:14:31.586Z,7.30
2023-04-21T21:16:59.729Z,6.40
2023-04-21T21:19:27.858Z,6.60
2023-04-21T21:21:55.923Z,7.70
2023-04-21T21:24:26.505Z,6.90
2023-04-21T21:26:54.606Z,7.20
2023-04-21T21:29:22.587Z,7.40
2023-04-21T21:31:50.858Z,7.20
2023-04-21T21:34:19.182Z,8.30
2023-04-21T21:36:47.347Z,7.10
2023-04-21T21:39:15.724Z,7.10
2023-04-21T21:41:43.904Z,7.30
2023-04-21T21:44:12.094Z,6.70
2023-04-21T21:46:40.219Z,7.30
2023-04-21T21:49:08.508Z,6.80
2023-04-21T21:51:36.574Z,6.30
2023-04-21T21:54:05.625Z,7.80
2023-04-21T21:56:33.685Z,8.00
2023-04-21T21:59:01.871Z,7.40
2023-04-21T22:01:30.119Z,7.20
2023-04-21T22:03:58.347Z,7.20
2023-04-21T22:06:27.004Z,6.10
2023-04-21T22:08:55.262Z,7.80
2023-04-21T22:11:24.251Z,6.80
2023-04-21T22:13:52.852Z,7.20
2023-04-21T22:16:21.012Z,7.40
2023-04-21T22:18:49.259Z,7.00
2023-04-21T22:21:17.716Z,8.00
2023-04-21T22:23:46.050Z,7.50
2023-04-21T22:38:54.884Z,6.70
2023-04-21T22:41:21.851Z,7.00
2023-04-21T22:43:48.701Z,6.50
2023-04-21T22:46:15.674Z,6.70
2023-04-21T22:48:45.704Z,6.30
2023-04-21T22:51:13.747Z,6.50
2023-04-21T22:53:40.404Z,7.30
2023-04-21T22:56:07.108Z,7.70
2023-04-21T22:58:33.924Z,6.70
2023-04-21T23:01:01.274Z,6.80
2023-04-21T23:03:28.088Z,6.70
2023-04-21T23:05:55.017Z,7.60
2023-04-21T23:08:21.996Z,8.00
2023-04-21T23:10:48.860Z,6.60
2023-04-21T23:13:15.786Z,7.30
2023-04-21T23:15:42.531Z,7.60
2023-04-21T23:18:09.302Z,7.10
2023-04-21T23:20:36.273Z,7.50
2023-04-21T23:23:02.899Z,7.70
2023-04-21T23:25:30.035Z,8.00
2023-04-21T23:27:56.639Z,7.50
2023-04-21T23:30:23.334Z,6.90
2023-04-21T23:32:50.301Z,6.40
2023-04-21T23:35:17.264Z,6.80
2023-04-21T23:37:45.852Z,7.50
2023-04-21T23:40:12.733Z,6.70
2023-04-21T23:42:39.689Z,6.90
2023-04-21T23:45:07.103Z,6.80
2023-04-21T23:47:34.362Z,6.90
2023-04-21T23:50:00.999Z,7.30
2023-04-21T23:52:27.654Z,7.30
2023-04-21T23:54:54.447Z,7.60
2023-04-21T23:57:21.117Z,7.60
2023-04-21T23:59:48.058Z,7.50
